createdAt,value
2018-09-27T00:01:54.874Z,2.83
2018-09-27T00:04:24.121Z,2.77
2018-09-27T00:06:52.971Z,3.00
2018-09-27T00:09:21.779Z,3.67
2018-09-27T00:11:50.877Z,2.87
2018-09-27T00:14:19.701Z,3.17
2018-09-27T00:16:48.543Z,3.47
2018-09-27T00:19:17.691Z,2.83
2018-09-27T00:21:46.509Z,3.57
2018-09-27T00:24:15.332Z,2.63
2018-09-27T00:26:44.434Z,3.07
2018-09-27T00:29:13.286Z,2.67
2018-09-27T00:31:49.089Z,3.00
2018-09-27T00:34:18.248Z,3.47
2018-09-27T00:36:47.065Z,32.60
2018-09-27T00:39:17.611Z,3.57
2018-09-27T00:41:52.196Z,4.50
2018-09-27T00:44:21.070Z,3.43
2018-09-27T00:46:51.009Z,2.77
2018-09-27T00:49:20.141Z,3.33
2018-09-27T00:51:48.960Z,3.10
2018-09-27T00:54:17.818Z,3.30
2018-09-27T00:56:46.956Z,3.53
2018-09-27T00:59:15.787Z,3.57
2018-09-27T01:01:45.618Z,2.90
2018-09-27T01:04:14.752Z,3.30
2018-09-27T01:06:48.827Z,3.53
2018-09-27T01:09:17.763Z,3.00
2018-09-27T01:11:46.901Z,3.33
2018-09-27T01:14:15.759Z,3.50
2018-09-27T01:16:44.644Z,3.30
2018-09-27T01:19:16.766Z,3.07
2018-09-27T01:21:45.600Z,3.37
2018-09-27T01:24:14.548Z,3.60
2018-09-27T01:26:44.137Z,3.83
2018-09-27T01:29:12.984Z,2.70
2018-09-27T01:31:41.845Z,3.30
2018-09-27T01:34:10.750Z,3.87
2018-09-27T01:36:39.611Z,3.50
2018-09-27T01:39:09.192Z,3.60
2018-09-27T01:41:38.942Z,3.53
2018-09-27T01:44:07.863Z,3.93
2018-09-27T01:46:51.244Z,4.80
2018-09-27T01:49:20.129Z,4.93
2018-09-27T01:51:49.272Z,4.80
2018-09-27T01:54:22.984Z,5.00
2018-09-27T01:56:51.859Z,5.00
2018-09-27T01:59:22.625Z,4.10
2018-09-27T02:02:02.835Z,5.63
2018-09-27T02:04:31.950Z,4.30
2018-09-27T02:07:00.820Z,4.20
2018-09-27T02:09:29.716Z,4.30
2018-09-27T02:11:58.852Z,10.53
2018-09-27T02:14:27.723Z,10.63
2018-09-27T02:16:59.882Z,17.27
2018-09-27T02:19:28.992Z,19.03
2018-09-27T02:21:57.809Z,20.17
2018-09-27T02:24:26.660Z,18.33
2018-09-27T02:26:55.800Z,20.87
2018-09-27T02:29:24.610Z,20.03
2018-09-27T02:31:53.445Z,19.93
2018-09-27T02:34:24.616Z,15.40
2018-09-27T02:36:53.457Z,14.33
2018-09-27T02:39:22.292Z,16.47
2018-09-27T02:41:51.432Z,15.07
2018-09-27T02:44:20.275Z,16.00
2018-09-27T02:46:52.824Z,11.73
2018-09-27T02:49:21.961Z,12.47
2018-09-27T02:51:50.982Z,9.97
2018-09-27T02:54:19.795Z,11.67
2018-09-27T02:56:49.026Z,15.40
2018-09-27T02:59:19.792Z,11.60
2018-09-27T03:01:48.615Z,12.03
2018-09-27T03:04:24.473Z,13.60
2018-09-27T03:06:53.305Z,12.23
2018-09-27T03:09:23.319Z,13.07
2018-09-27T03:11:52.552Z,14.10
2018-09-27T03:14:26.292Z,11.33
2018-09-27T03:16:55.124Z,11.27
2018-09-27T03:19:27.688Z,10.63
2018-09-27T03:21:56.509Z,10.73
2018-09-27T03:24:25.356Z,10.90
2018-09-27T03:30:30.390Z,8.13
2018-09-27T03:32:59.537Z,8.40
2018-09-27T03:35:32.165Z,7.27
2018-09-27T03:37:59.842Z,7.77
2018-09-27T03:40:28.982Z,7.90
2018-09-27T03:42:57.806Z,7.93
2018-09-27T03:45:26.639Z,8.87
2018-09-27T03:48:58.063Z,10.57
2018-09-27T03:51:26.883Z,13.90
2018-09-27T03:53:56.044Z,12.57
2018-09-27T03:56:24.867Z,13.43
2018-09-27T03:58:53.740Z,15.63
2018-09-27T04:01:22.925Z,16.03
2018-09-27T04:03:51.807Z,16.00
2018-09-27T04:06:22.229Z,14.20
2018-09-27T04:08:51.315Z,14.97
2018-09-27T04:11:20.209Z,14.20
2018-09-27T04:13:52.277Z,11.97
2018-09-27T04:16:21.139Z,10.80
2018-09-27T04:18:50.049Z,9.20
2018-09-27T04:21:28.521Z,9.40
2018-09-27T04:23:57.495Z,9.60
2018-09-27T04:26:26.325Z,9.83
2018-09-27T04:28:55.178Z,10.40
2018-09-27T04:31:24.024Z,13.07
2018-09-27T04:33:53.239Z,14.37
2018-09-27T04:36:22.117Z,12.10
2018-09-27T04:38:50.957Z,13.00
2018-09-27T04:41:25.223Z,14.53
2018-09-27T04:43:54.107Z,13.40
2018-09-27T04:46:22.970Z,15.63
2018-09-27T04:48:52.102Z,16.27
2018-09-27T04:51:20.974Z,18.67
2018-09-27T04:53:50.619Z,16.20
2018-09-27T04:56:19.817Z,15.10
2018-09-27T04:58:48.671Z,14.00
2018-09-27T05:01:17.497Z,14.70
2018-09-27T05:03:46.700Z,14.93
2018-09-27T05:06:15.608Z,20.10
2018-09-27T05:08:44.503Z,19.83
2018-09-27T05:11:14.016Z,13.40
2018-09-27T05:13:42.947Z,12.40
2018-09-27T05:16:12.360Z,12.70
2018-09-27T05:18:41.699Z,12.63
2018-09-27T05:21:10.898Z,11.40
2018-09-27T05:23:40.702Z,12.17
2018-09-27T05:26:10.184Z,17.80
2018-09-27T05:28:39.591Z,10.90
2018-09-27T05:31:10.422Z,9.63
2018-09-27T05:33:40.721Z,9.27
2018-09-27T05:36:10.837Z,10.47
2018-09-27T05:38:43.862Z,9.63
2018-09-27T05:41:16.366Z,10.60
2018-09-27T05:43:46.652Z,11.73
2018-09-27T05:46:17.189Z,8.57
2018-09-27T05:48:46.825Z,9.47
2018-09-27T05:51:15.943Z,7.50
2018-09-27T05:53:50.555Z,7.30
2018-09-27T05:56:19.657Z,7.10
2018-09-27T05:58:48.506Z,7.70
2018-09-27T06:01:17.904Z,6.40
2018-09-27T06:03:46.762Z,6.77
2018-09-27T06:06:18.755Z,6.17
2018-09-27T06:08:47.974Z,7.90
2018-09-27T06:11:27.841Z,6.70
2018-09-27T06:14:05.229Z,7.70
2018-09-27T06:16:34.432Z,8.60
2018-09-27T06:19:05.337Z,8.37
2018-09-27T06:21:34.227Z,10.73
2018-09-27T06:24:05.774Z,10.73
2018-09-27T06:26:35.312Z,10.03
2018-09-27T06:29:04.318Z,10.47
2018-09-27T06:31:33.169Z,10.60
2018-09-27T06:34:03.053Z,10.87
2018-09-27T06:36:31.923Z,10.00
2018-09-27T06:39:00.941Z,10.40
2018-09-27T06:41:30.198Z,10.73
2018-09-27T06:44:00.912Z,10.03
2018-09-27T06:46:30.215Z,10.90
2018-09-27T06:49:17.707Z,10.90
2018-09-27T06:51:47.212Z,11.10
2018-09-27T06:54:33.851Z,11.47
2018-09-27T06:57:13.736Z,11.23
2018-09-27T06:59:57.229Z,11.30
2018-09-27T07:02:26.491Z,10.47
2018-09-27T07:04:55.737Z,10.30
2018-09-27T07:07:24.741Z,11.63
2018-09-27T07:09:53.577Z,10.50
2018-09-27T07:12:23.549Z,10.97
2018-09-27T07:14:52.253Z,8.50
2018-09-27T07:17:21.151Z,10.63
2018-09-27T07:19:58.989Z,10.37
2018-09-27T07:22:27.861Z,9.90
2018-09-27T07:24:56.738Z,9.33
2018-09-27T07:27:28.682Z,10.50
2018-09-27T07:29:57.824Z,10.10
2018-09-27T07:32:27.354Z,11.10
2018-09-27T07:34:56.248Z,9.43
2018-09-27T07:37:25.408Z,9.17
2018-09-27T07:39:54.292Z,9.90
2018-09-27T07:42:34.191Z,8.90
2018-09-27T07:45:03.661Z,9.73
2018-09-27T07:47:34.262Z,9.77
2018-09-27T07:50:04.746Z,10.27
2018-09-27T07:52:52.790Z,9.53
2018-09-27T07:55:24.921Z,9.40
2018-09-27T07:57:54.142Z,9.20
2018-09-27T08:00:23.015Z,10.53
2018-09-27T08:02:52.005Z,9.40
2018-09-27T08:05:21.165Z,9.70
2018-09-27T08:07:50.765Z,10.23
2018-09-27T08:10:20.028Z,9.97
2018-09-27T08:12:49.213Z,11.10
2018-09-27T08:15:48.566Z,9.53
2018-09-27T08:18:17.463Z,9.23
2018-09-27T08:20:46.677Z,11.03
2018-09-27T08:23:15.597Z,10.13
2018-09-27T08:25:47.390Z,10.90
2018-09-27T08:28:16.623Z,11.37
2018-09-27T08:30:45.797Z,12.87
2018-09-27T08:33:14.604Z,11.43
2018-09-27T08:35:47.063Z,10.93
2018-09-27T08:38:16.540Z,11.63
2018-09-27T08:40:49.620Z,11.50
2018-09-27T08:43:18.612Z,12.30
2018-09-27T08:45:47.581Z,11.67
2018-09-27T08:48:16.413Z,10.93
2018-09-27T08:50:45.361Z,10.37
2018-09-27T08:53:14.549Z,12.07
2018-09-27T08:55:43.764Z,11.63
2018-09-27T08:58:12.524Z,11.30
2018-09-27T09:00:42.701Z,10.37
2018-09-27T09:03:11.547Z,10.33
2018-09-27T09:05:40.490Z,9.60
2018-09-27T09:08:09.653Z,9.80
2018-09-27T09:10:42.561Z,9.57
2018-09-27T09:13:11.403Z,8.23
2018-09-27T09:15:40.641Z,8.80
2018-09-27T09:18:09.499Z,8.03
2018-09-27T09:20:40.912Z,6.77
2018-09-27T09:23:10.080Z,8.83
2018-09-27T09:25:39.103Z,7.60
2018-09-27T09:28:08.014Z,7.90
2018-09-27T09:30:40.829Z,7.30
2018-09-27T09:33:09.737Z,7.07
2018-09-27T09:35:39.746Z,7.37
2018-09-27T09:38:08.826Z,5.97
2018-09-27T09:40:37.804Z,6.90
2018-09-27T09:43:06.716Z,7.57
2018-09-27T09:45:36.033Z,6.23
2018-09-27T09:48:05.969Z,6.83
2018-09-27T09:50:34.944Z,6.63
2018-09-27T09:53:08.329Z,7.37
2018-09-27T09:55:37.830Z,6.80
2018-09-27T09:58:12.240Z,6.30
2018-09-27T10:00:41.148Z,6.87
2018-09-27T10:03:10.230Z,6.60
2018-09-27T10:05:39.505Z,7.20
2018-09-27T10:08:08.401Z,5.80
2018-09-27T10:10:37.348Z,6.10
2018-09-27T10:13:06.570Z,6.33
2018-09-27T10:15:35.486Z,5.70
2018-09-27T10:18:05.819Z,5.53
2018-09-27T10:20:34.984Z,5.87
2018-09-27T10:23:05.089Z,5.70
2018-09-27T10:25:33.989Z,5.00
2018-09-27T10:28:04.408Z,5.90
2018-09-27T10:30:39.047Z,5.30
2018-09-27T10:33:07.945Z,5.93
2018-09-27T10:35:42.481Z,5.43
2018-09-27T10:38:11.383Z,6.80
2018-09-27T10:40:41.088Z,6.17
2018-09-27T10:43:09.906Z,6.03
2018-09-27T10:45:39.785Z,5.80
2018-09-27T10:48:08.998Z,6.47
2018-09-27T10:50:37.979Z,7.17
2018-09-27T10:53:07.194Z,7.40
2018-09-27T10:55:38.588Z,9.17
2018-09-27T10:58:08.151Z,10.33
2018-09-27T11:00:37.528Z,7.90
2018-09-27T11:03:06.879Z,8.23
2018-09-27T11:05:56.388Z,7.93
2018-09-27T11:08:26.443Z,7.30
2018-09-27T11:10:55.816Z,8.37
2018-09-27T11:13:24.695Z,8.70
2018-09-27T11:15:58.480Z,8.50
2018-09-27T11:18:32.877Z,7.10
2018-09-27T11:21:02.251Z,7.80
2018-09-27T11:23:31.674Z,7.20
2018-09-27T11:26:00.628Z,7.17
2018-09-27T11:30:41.744Z,7.13
2018-09-27T11:35:50.613Z,7.23
2018-09-27T11:38:19.480Z,7.07
2018-09-27T11:40:48.417Z,6.50
2018-09-27T11:43:17.644Z,5.90
2018-09-27T11:45:46.505Z,6.30
2018-09-27T11:48:15.416Z,6.10
2018-09-27T11:50:45.585Z,5.50
2018-09-27T11:53:20.226Z,5.80
2018-09-27T11:55:49.182Z,5.37
2018-09-27T11:58:18.393Z,5.80
2018-09-27T12:01:04.807Z,5.47
2018-09-27T12:03:51.269Z,4.60
2018-09-27T12:06:20.245Z,5.17
2018-09-27T12:08:55.372Z,5.10
2018-09-27T12:11:24.248Z,5.00
2018-09-27T12:13:54.360Z,4.43
2018-09-27T12:16:23.574Z,3.53
2018-09-27T12:18:55.925Z,3.70
2018-09-27T12:21:24.845Z,3.27
2018-09-27T12:23:54.033Z,3.30
2018-09-27T12:26:23.812Z,2.93
2018-09-27T12:28:58.152Z,3.10
2018-09-27T12:31:27.025Z,2.00
2018-09-27T12:33:55.883Z,2.63
2018-09-27T12:39:01.365Z,2.47
2018-09-27T12:41:31.479Z,2.10
2018-09-27T12:44:00.366Z,1.80
2018-09-27T12:46:29.354Z,2.40
2018-09-27T12:48:58.327Z,2.03
2018-09-27T12:51:33.368Z,2.37
2018-09-27T12:56:40.716Z,1.53
2018-09-27T12:59:09.721Z,1.67
2018-09-27T13:01:39.760Z,2.40
2018-09-27T13:04:08.805Z,1.60
2018-09-27T13:06:37.629Z,2.13
2018-09-27T13:09:09.166Z,1.90
2018-09-27T13:11:40.644Z,1.83
2018-09-27T13:14:06.968Z,1.77
2018-09-27T13:16:42.449Z,1.70
2018-09-27T13:19:11.395Z,1.90
2018-09-27T13:21:44.109Z,1.73
2018-09-27T13:24:13.036Z,1.70
2018-09-27T13:26:47.270Z,1.70
2018-09-27T13:29:16.543Z,1.30
2018-09-27T13:31:49.364Z,2.33
2018-09-27T13:34:18.266Z,2.33
2018-09-27T13:36:47.454Z,2.10
2018-09-27T13:39:16.324Z,2.30
2018-09-27T13:41:45.332Z,1.73
2018-09-27T13:44:14.527Z,1.90
2018-09-27T13:46:43.425Z,1.40
2018-09-27T13:49:12.426Z,1.40
2018-09-27T13:51:41.509Z,1.70
2018-09-27T13:54:10.355Z,1.43
2018-09-27T13:56:39.417Z,1.90
2018-09-27T13:59:08.763Z,1.83
2018-09-27T14:01:38.156Z,1.37
2018-09-27T14:04:07.206Z,1.77
2018-09-27T14:06:36.084Z,1.50
2018-09-27T14:09:06.786Z,2.47
2018-09-27T14:11:38.035Z,1.87
2018-09-27T14:14:07.053Z,1.80
2018-09-27T14:16:35.992Z,1.93
2018-09-27T14:19:04.909Z,1.80
2018-09-27T14:21:33.899Z,1.80
2018-09-27T14:24:06.456Z,1.90
2018-09-27T14:26:35.399Z,1.80
2018-09-27T14:29:04.341Z,1.87
2018-09-27T14:31:33.212Z,1.70
2018-09-27T14:34:03.945Z,1.60
2018-09-27T14:36:33.190Z,1.70
2018-09-27T14:39:02.385Z,1.80
2018-09-27T14:41:31.371Z,1.20
2018-09-27T14:44:04.454Z,1.97
2018-09-27T14:46:33.345Z,1.50
2018-09-27T14:49:08.904Z,1.53
2018-09-27T14:51:38.297Z,1.33
2018-09-27T14:54:07.709Z,1.80
2018-09-27T14:56:36.650Z,1.60
2018-09-27T14:59:06.173Z,1.87
2018-09-27T15:01:35.027Z,2.07
2018-09-27T15:04:04.919Z,1.30
2018-09-27T15:06:34.137Z,2.20
2018-09-27T15:09:04.951Z,1.53
2018-09-27T15:11:33.834Z,1.60
2018-09-27T15:14:05.031Z,1.63
2018-09-27T15:16:33.959Z,2.30
2018-09-27T15:19:02.890Z,1.73
2018-09-27T15:21:31.785Z,2.30
2018-09-27T15:24:01.344Z,1.67
2018-09-27T15:26:30.453Z,1.83
2018-09-27T15:28:59.362Z,2.00
2018-09-27T15:31:28.451Z,2.03
2018-09-27T15:33:57.612Z,2.27
2018-09-27T15:36:26.576Z,2.00
2018-09-27T15:38:55.397Z,2.23
2018-09-27T15:41:24.565Z,2.23
2018-09-27T15:43:53.566Z,2.53
2018-09-27T15:46:22.476Z,1.60
2018-09-27T15:48:51.635Z,1.90
2018-09-27T15:51:20.756Z,1.90
2018-09-27T15:53:49.663Z,1.40
2018-09-27T15:56:18.858Z,1.80
2018-09-27T15:58:47.745Z,2.40
2018-09-27T16:01:16.757Z,1.90
2018-09-27T16:03:48.068Z,6.30
2018-09-27T16:06:16.884Z,2.13
2018-09-27T16:08:45.666Z,1.80
2018-09-27T16:11:22.365Z,1.80
2018-09-27T16:13:51.209Z,1.97
2018-09-27T16:16:20.072Z,2.20
2018-09-27T16:18:48.925Z,2.50
2018-09-27T16:21:17.788Z,2.23
2018-09-27T16:23:46.976Z,2.03
2018-09-27T16:26:15.842Z,1.57
2018-09-27T16:28:44.932Z,3.23
2018-09-27T16:31:13.874Z,2.23
2018-09-27T16:33:42.723Z,2.20
2018-09-27T16:36:13.484Z,2.20
2018-09-27T16:38:42.526Z,2.20
2018-09-27T16:41:11.685Z,2.40
2018-09-27T16:43:43.734Z,4.47
2018-09-27T16:46:12.726Z,3.70
2018-09-27T16:48:42.168Z,2.37
2018-09-27T16:51:11.188Z,3.87
2018-09-27T16:53:40.272Z,2.67
2018-09-27T16:56:10.671Z,2.13
2018-09-27T16:58:39.594Z,2.60
2018-09-27T17:01:10.342Z,2.30
2018-09-27T17:03:39.877Z,2.30
2018-09-27T17:06:10.076Z,2.03
2018-09-27T17:08:40.003Z,2.17
2018-09-27T17:11:09.720Z,2.80
2018-09-27T17:13:39.290Z,2.30
2018-09-27T17:16:09.086Z,2.77
2018-09-27T17:18:38.652Z,2.00
2018-09-27T17:21:07.967Z,2.57
2018-09-27T17:23:43.204Z,2.30
2018-09-27T17:26:12.663Z,2.63
2018-09-27T17:28:46.793Z,2.20
2018-09-27T17:31:16.995Z,2.53
2018-09-27T17:33:46.891Z,2.30
2018-09-27T17:36:16.769Z,2.53
2018-09-27T17:38:47.282Z,2.63
2018-09-27T17:41:16.964Z,2.33
2018-09-27T17:43:46.700Z,2.00
2018-09-27T17:46:16.304Z,2.83
2018-09-27T17:48:46.158Z,3.63
2018-09-27T17:51:15.956Z,2.00
2018-09-27T17:56:17.479Z,1.97
2018-09-27T17:58:48.243Z,2.53
2018-09-27T18:01:18.030Z,2.37
2018-09-27T18:03:47.993Z,2.60
2018-09-27T18:06:17.604Z,3.70
2018-09-27T18:08:47.285Z,2.57
2018-09-27T18:11:17.547Z,3.50
2018-09-27T18:13:48.165Z,3.70
2018-09-27T18:16:17.859Z,3.20
2018-09-27T18:18:47.964Z,3.50
2018-09-27T18:21:17.617Z,3.80
2018-09-27T18:23:50.046Z,3.93
2018-09-27T18:26:22.076Z,4.23
2018-09-27T18:28:52.740Z,3.57
2018-09-27T18:31:22.632Z,4.00
2018-09-27T18:33:52.709Z,3.60
2018-09-27T18:36:22.373Z,3.93
2018-09-27T18:38:52.021Z,3.50
2018-09-27T18:41:22.482Z,4.37
2018-09-27T18:43:52.255Z,4.43
2018-09-27T18:46:22.708Z,6.00
2018-09-27T18:48:55.598Z,5.07
2018-09-27T18:51:25.276Z,3.60
2018-09-27T18:53:54.904Z,6.73
2018-09-27T19:02:07.556Z,5.20
2018-09-27T19:04:37.244Z,6.37
2018-09-27T19:07:06.923Z,4.80
2018-09-27T19:09:41.825Z,5.97
2018-09-27T19:12:11.789Z,4.70
2018-09-27T19:14:42.314Z,4.40
2018-09-27T19:17:12.371Z,4.23
2018-09-27T19:19:41.854Z,4.80
2018-09-27T19:22:15.584Z,4.23
2018-09-27T19:24:45.187Z,4.03
2018-09-27T19:27:14.813Z,5.13
2018-09-27T19:29:45.823Z,5.50
2018-09-27T19:32:16.347Z,5.20
2018-09-27T19:34:46.180Z,6.97
2018-09-27T19:37:16.198Z,5.27
2018-09-27T19:39:52.672Z,5.30
2018-09-27T19:42:22.560Z,5.40
2018-09-27T19:44:52.348Z,4.23
2018-09-27T19:47:22.000Z,6.53
2018-09-27T19:49:52.113Z,7.10
2018-09-27T19:52:23.051Z,5.40
2018-09-27T19:54:52.797Z,5.80
2018-09-27T19:57:22.402Z,5.80
2018-09-27T19:59:52.453Z,7.77
2018-09-27T20:02:22.794Z,6.13
2018-09-27T20:04:53.847Z,5.30
2018-09-27T20:07:24.565Z,5.63
2018-09-27T20:09:54.233Z,5.70
2018-09-27T20:12:24.811Z,7.40
2018-09-27T20:17:29.881Z,5.93
2018-09-27T20:19:59.605Z,24.83
2018-09-27T20:22:29.972Z,6.87
2018-09-27T20:24:59.653Z,5.40
2018-09-27T20:27:29.308Z,4.50
2018-09-27T20:29:59.341Z,4.90
2018-09-27T20:32:36.888Z,5.10
2018-09-27T20:35:09.203Z,4.90
2018-09-27T20:37:42.515Z,4.33
2018-09-27T20:40:12.088Z,6.23
2018-09-27T20:42:42.893Z,9.03
2018-09-27T20:45:12.575Z,10.80
2018-09-27T20:47:45.176Z,6.53
2018-09-27T20:50:15.101Z,5.53
2018-09-27T20:52:44.803Z,4.90
2018-09-27T20:55:16.360Z,5.80
2018-09-27T20:57:45.940Z,5.20
2018-09-27T21:00:15.791Z,5.63
2018-09-27T21:02:55.327Z,5.53
2018-09-27T21:05:29.551Z,5.40
2018-09-27T21:07:59.184Z,5.40
2018-09-27T21:10:31.820Z,4.60
2018-09-27T21:13:05.757Z,5.30
2018-09-27T21:15:35.299Z,5.03
2018-09-27T21:18:06.513Z,5.00
2018-09-27T21:20:35.335Z,5.57
2018-09-27T21:23:04.230Z,6.90
2018-09-27T21:25:33.178Z,5.20
2018-09-27T21:28:04.464Z,5.10
2018-09-27T21:30:38.835Z,4.27
2018-09-27T21:33:07.813Z,5.90
2018-09-27T21:35:36.620Z,5.67
2018-09-27T21:38:06.345Z,5.27
2018-09-27T21:40:35.187Z,5.70
2018-09-27T21:43:04.063Z,5.23
2018-09-27T21:45:33.213Z,5.13
2018-09-27T21:48:02.698Z,4.53
2018-09-27T21:50:31.513Z,5.33
2018-09-27T21:53:00.671Z,4.87
2018-09-27T21:55:29.563Z,5.77
2018-09-27T21:57:58.342Z,5.57
2018-09-27T22:00:27.655Z,5.33
2018-09-27T22:02:57.076Z,6.07
2018-09-27T22:05:25.904Z,5.90
2018-09-27T22:07:54.990Z,5.10
2018-09-27T22:10:23.788Z,6.17
2018-09-27T22:12:52.796Z,5.33
2018-09-27T22:17:55.415Z,5.53
2018-09-27T22:20:24.277Z,5.03
2018-09-27T22:22:53.545Z,6.27
2018-09-27T22:25:23.159Z,5.73
2018-09-27T22:27:52.254Z,6.43
2018-09-27T22:30:22.148Z,6.20
2018-09-27T22:32:51.132Z,5.80
2018-09-27T22:35:20.009Z,5.67
2018-09-27T22:37:49.120Z,6.17
2018-09-27T22:40:17.922Z,6.30
2018-09-27T22:42:46.788Z,6.57
2018-09-27T22:45:15.900Z,7.20
2018-09-27T22:47:48.297Z,6.77
2018-09-27T22:50:17.049Z,6.40
2018-09-27T22:52:50.111Z,6.37
2018-09-27T22:55:18.969Z,8.27
2018-09-27T22:57:47.782Z,7.67
2018-09-27T23:00:16.915Z,7.47
2018-09-27T23:02:45.883Z,7.37
2018-09-27T23:05:14.717Z,7.10
2018-09-27T23:07:43.810Z,7.27
2018-09-27T23:10:12.606Z,7.17
2018-09-27T23:12:41.441Z,7.33
2018-09-27T23:18:01.132Z,7.63
2018-09-27T23:20:30.436Z,8.50
2018-09-27T23:22:59.277Z,7.83
2018-09-27T23:25:28.068Z,8.17
2018-09-27T23:28:00.769Z,7.67
2018-09-27T23:30:29.640Z,7.30
2018-09-27T23:32:58.795Z,6.93
2018-09-27T23:35:27.576Z,7.77
2018-09-27T23:37:56.334Z,7.53
2018-09-27T23:40:25.136Z,6.83
2018-09-27T23:42:53.985Z,7.77
2018-09-27T23:45:22.973Z,7.40
2018-09-27T23:47:51.856Z,7.53
2018-09-27T23:50:23.615Z,8.00
2018-09-27T23:52:52.789Z,8.20
2018-09-27T23:55:21.611Z,7.87
2018-09-27T23:57:50.461Z,8.30
